createdAt,value
2022-08-21T00:00:24.940Z,52.03
2022-08-21T00:02:56.060Z,56.05
2022-08-21T00:05:24.670Z,61.58
2022-08-21T00:07:53.059Z,48.92
2022-08-21T00:10:21.196Z,68.85
2022-08-21T00:12:49.724Z,61.97
2022-08-21T00:15:27.562Z,57.40
2022-08-21T00:17:55.971Z,68.07
2022-08-21T00:20:24.959Z,61.25
2022-08-21T00:22:53.001Z,51.92
2022-08-21T00:25:26.091Z,60.75
2022-08-21T00:27:55.147Z,55.40
2022-08-21T00:30:24.201Z,41.28
2022-08-21T00:32:53.079Z,47.33
2022-08-21T00:35:23.565Z,42.50
2022-08-21T00:37:51.486Z,48.35
2022-08-21T00:40:22.855Z,42.28
2022-08-21T00:42:53.846Z,35.83
2022-08-21T00:45:23.459Z,37.60
2022-08-21T00:47:52.162Z,36.65
2022-08-21T00:50:21.738Z,43.90
2022-08-21T00:52:51.888Z,36.47
2022-08-21T00:55:19.917Z,35.35
2022-08-21T00:57:56.058Z,36.17
2022-08-21T01:00:37.360Z,32.20
2022-08-21T01:03:09.219Z,40.15
2022-08-21T01:05:38.398Z,39.53
2022-08-21T01:08:07.701Z,37.47
2022-08-21T01:10:36.347Z,42.90
2022-08-21T01:13:08.006Z,44.92
2022-08-21T01:15:38.257Z,45.03
2022-08-21T01:18:08.383Z,58.35
2022-08-21T01:20:36.842Z,66.22
2022-08-21T01:23:05.473Z,64.93
2022-08-21T01:25:34.063Z,69.93
2022-08-21T01:28:06.016Z,89.32
2022-08-21T01:30:34.300Z,80.05
2022-08-21T01:33:02.291Z,77.80
2022-08-21T01:35:30.517Z,79.20
2022-08-21T01:37:58.375Z,80.20
2022-08-21T01:40:26.718Z,80.30
2022-08-21T01:42:54.576Z,70.68
2022-08-21T01:45:22.607Z,74.65
2022-08-21T01:47:50.867Z,78.07
2022-08-21T01:50:19.524Z,83.43
2022-08-21T01:52:47.419Z,62.95
2022-08-21T01:55:15.454Z,51.85
2022-08-21T01:57:43.958Z,50.92
2022-08-21T02:00:13.211Z,40.08
2022-08-21T02:02:42.340Z,44.33
2022-08-21T02:05:11.057Z,35.08
2022-08-21T02:07:43.892Z,42.90
2022-08-21T02:10:13.540Z,41.25
2022-08-21T02:12:41.540Z,40.97
2022-08-21T02:15:10.669Z,39.20
2022-08-21T02:17:53.949Z,32.10
2022-08-21T02:20:29.876Z,36.90
2022-08-21T02:22:57.735Z,32.10
2022-08-21T02:25:26.469Z,37.97
2022-08-21T02:27:54.859Z,29.95
2022-08-21T02:30:28.668Z,34.92
2022-08-21T02:32:58.194Z,39.40
2022-08-21T02:35:26.586Z,44.75
2022-08-21T02:37:56.413Z,48.10
2022-08-21T02:40:26.398Z,41.20
2022-08-21T02:42:54.909Z,35.10
2022-08-21T02:45:22.902Z,31.83
2022-08-21T02:47:52.535Z,41.35
2022-08-21T02:50:26.666Z,32.50
2022-08-21T02:52:55.666Z,34.53
2022-08-21T02:55:24.401Z,32.13
2022-08-21T02:57:52.280Z,38.80
2022-08-21T03:00:21.681Z,42.63
2022-08-21T03:02:54.551Z,42.75
2022-08-21T03:05:23.139Z,34.65
2022-08-21T03:07:53.533Z,42.78
2022-08-21T03:10:21.747Z,27.73
2022-08-21T03:12:49.777Z,38.42
2022-08-21T03:15:19.942Z,44.00
2022-08-21T03:17:48.837Z,42.78
2022-08-21T03:20:18.652Z,42.33
2022-08-21T03:22:52.967Z,37.00
2022-08-21T03:25:38.886Z,38.83
2022-08-21T03:28:12.908Z,41.33
2022-08-21T03:30:42.582Z,42.25
2022-08-21T03:33:12.210Z,33.97
2022-08-21T03:35:41.640Z,28.35
2022-08-21T03:38:09.736Z,41.95
2022-08-21T03:40:38.380Z,33.42
2022-08-21T03:43:10.241Z,38.25
2022-08-21T03:45:38.571Z,45.45
2022-08-21T03:48:06.771Z,33.17
2022-08-21T03:50:40.976Z,38.85
2022-08-21T03:53:17.223Z,32.72
2022-08-21T03:55:49.039Z,44.85
2022-08-21T03:58:18.159Z,37.72
2022-08-21T04:00:47.125Z,34.05
2022-08-21T04:03:15.072Z,45.28
2022-08-21T04:05:43.500Z,44.95
2022-08-21T04:08:13.077Z,51.53
2022-08-21T04:10:42.620Z,40.30
2022-08-21T04:13:13.932Z,32.53
2022-08-21T04:15:42.578Z,33.63
2022-08-21T04:18:10.990Z,40.90
2022-08-21T04:20:41.421Z,37.67
2022-08-21T04:23:14.732Z,35.17
2022-08-21T04:25:56.674Z,44.83
2022-08-21T04:28:30.362Z,42.67
2022-08-21T04:30:59.972Z,35.55
2022-08-21T04:33:28.005Z,39.05
2022-08-21T04:35:56.369Z,40.53
2022-08-21T04:38:24.806Z,42.05
2022-08-21T04:40:53.301Z,36.15
2022-08-21T04:43:24.361Z,37.13
2022-08-21T04:45:52.986Z,36.28
2022-08-21T04:48:22.213Z,41.38
2022-08-21T04:51:11.571Z,40.30
2022-08-21T04:53:48.562Z,33.35
2022-08-21T04:56:27.644Z,47.25
2022-08-21T04:58:57.325Z,36.20
2022-08-21T05:01:27.797Z,35.63
2022-08-21T05:03:57.951Z,45.17
2022-08-21T05:06:26.467Z,34.17
2022-08-21T05:08:58.827Z,46.40
2022-08-21T05:11:31.794Z,32.50
2022-08-21T05:14:00.431Z,36.05
2022-08-21T05:16:31.735Z,40.90
2022-08-21T05:19:06.756Z,35.22
2022-08-21T05:21:35.646Z,46.65
2022-08-21T05:24:04.122Z,38.72
2022-08-21T05:26:31.985Z,43.97
2022-08-21T05:29:01.569Z,47.97
2022-08-21T05:31:31.471Z,45.55
2022-08-21T05:33:59.523Z,45.00
2022-08-21T05:36:31.589Z,33.03
2022-08-21T05:38:59.722Z,41.47
2022-08-21T05:41:27.693Z,35.30
2022-08-21T05:43:56.013Z,39.15
2022-08-21T05:46:23.891Z,42.78
2022-08-21T05:48:51.866Z,52.92
2022-08-21T05:51:19.905Z,37.75
2022-08-21T05:53:48.619Z,46.78
2022-08-21T05:56:17.064Z,45.45
2022-08-21T05:58:46.346Z,46.10
2022-08-21T06:01:15.892Z,49.55
2022-08-21T06:03:44.087Z,42.78
2022-08-21T06:06:12.252Z,35.75
2022-08-21T06:08:40.525Z,41.20
2022-08-21T06:11:08.961Z,37.85
2022-08-21T06:13:37.997Z,47.70
2022-08-21T06:16:24.497Z,46.00
2022-08-21T06:18:52.646Z,43.20
2022-08-21T06:21:20.891Z,47.10
2022-08-21T06:23:48.813Z,47.60
2022-08-21T06:26:19.088Z,37.67
2022-08-21T06:28:47.244Z,56.20
2022-08-21T06:31:25.016Z,39.75
2022-08-21T06:33:53.231Z,47.20
2022-08-21T06:36:22.091Z,38.22
2022-08-21T06:38:51.912Z,40.90
2022-08-21T06:41:23.922Z,54.92
2022-08-21T06:43:53.500Z,52.25
2022-08-21T06:46:21.361Z,54.20
2022-08-21T06:48:51.273Z,50.03
2022-08-21T06:51:21.577Z,61.22
2022-08-21T06:53:50.676Z,55.95
2022-08-21T06:56:19.261Z,69.82
2022-08-21T06:58:47.187Z,60.22
2022-08-21T07:01:16.190Z,63.70
2022-08-21T07:03:44.283Z,73.90
2022-08-21T07:06:13.695Z,72.70
2022-08-21T07:08:42.026Z,75.82
2022-08-21T07:11:18.810Z,67.95
2022-08-21T07:13:47.692Z,64.72
2022-08-21T07:16:16.100Z,73.07
2022-08-21T07:18:45.215Z,70.95
2022-08-21T07:21:13.130Z,75.35
2022-08-21T07:23:50.508Z,68.35
2022-08-21T07:26:21.890Z,64.10
2022-08-21T07:28:50.246Z,72.80
2022-08-21T07:31:20.629Z,77.50
2022-08-21T07:33:48.528Z,63.63
2022-08-21T07:36:18.881Z,67.40
2022-08-21T07:38:49.228Z,65.25
2022-08-21T07:41:25.388Z,84.50
2022-08-21T07:43:53.833Z,79.50
2022-08-21T07:46:22.539Z,89.07
2022-08-21T07:48:50.715Z,85.38
2022-08-21T07:51:25.785Z,93.88
2022-08-21T07:53:57.337Z,103.25
2022-08-21T07:56:25.994Z,91.78
2022-08-21T07:58:54.204Z,94.07
2022-08-21T08:01:24.368Z,95.75
2022-08-21T08:03:55.761Z,89.70
2022-08-21T08:06:24.545Z,92.18
2022-08-21T08:08:53.535Z,92.50
2022-08-21T08:11:41.654Z,97.13
2022-08-21T08:14:14.646Z,97.88
2022-08-21T08:16:44.542Z,107.78
2022-08-21T08:19:12.740Z,104.78
2022-08-21T08:21:40.840Z,104.07
2022-08-21T08:24:18.292Z,92.40
2022-08-21T08:26:53.509Z,93.25
2022-08-21T08:29:24.111Z,119.53
2022-08-21T08:32:08.685Z,95.43
2022-08-21T08:34:38.137Z,105.55
2022-08-21T08:37:06.533Z,97.97
2022-08-21T08:39:37.380Z,89.53
2022-08-21T08:42:33.995Z,98.22
2022-08-21T08:45:13.306Z,102.72
2022-08-21T08:47:45.649Z,99.22
2022-08-21T08:50:22.840Z,82.47
2022-08-21T08:52:55.470Z,106.80
2022-08-21T08:55:28.273Z,81.72
2022-08-21T08:57:57.753Z,101.57
2022-08-21T09:00:27.863Z,102.43
2022-08-21T09:02:57.077Z,86.70
2022-08-21T09:05:31.902Z,98.45
2022-08-21T09:08:37.455Z,84.15
2022-08-21T09:11:11.756Z,99.35
2022-08-21T09:13:42.499Z,92.35
2022-08-21T09:16:41.265Z,90.43
2022-08-21T09:19:34.148Z,89.03
2022-08-21T09:22:31.781Z,101.07
2022-08-21T09:25:24.861Z,97.65
2022-08-21T09:27:57.232Z,82.65
2022-08-21T09:30:32.019Z,96.30
2022-08-21T09:33:01.597Z,96.28
2022-08-21T09:35:30.199Z,91.95
2022-08-21T09:38:06.090Z,84.20
2022-08-21T09:40:46.164Z,84.72
2022-08-21T09:43:19.871Z,75.63
2022-08-21T09:45:52.007Z,84.97
2022-08-21T09:48:27.160Z,79.78
2022-08-21T09:51:14.472Z,76.30
2022-08-21T09:54:02.298Z,67.40
2022-08-21T09:57:00.362Z,78.60
2022-08-21T09:59:37.057Z,63.15
2022-08-21T10:02:25.323Z,62.55
2022-08-21T10:05:03.300Z,79.65
2022-08-21T10:07:33.553Z,61.72
2022-08-21T10:10:06.213Z,82.15
2022-08-21T10:13:02.027Z,117.68
2022-08-21T10:15:43.502Z,67.88
2022-08-21T10:18:29.271Z,72.82
2022-08-21T10:21:28.533Z,67.18
2022-08-21T10:24:30.801Z,80.05
2022-08-21T10:27:23.827Z,68.88
2022-08-21T10:30:05.001Z,63.13
2022-08-21T10:33:07.401Z,65.97
2022-08-21T10:35:43.758Z,68.68
2022-08-21T10:38:52.570Z,56.70
2022-08-21T10:41:38.150Z,64.32
2022-08-21T10:44:11.448Z,64.00
2022-08-21T10:46:56.837Z,70.53
2022-08-21T10:49:30.565Z,54.30
2022-08-21T10:52:36.318Z,66.32
2022-08-21T10:55:21.464Z,62.38
2022-08-21T10:57:59.619Z,58.42
2022-08-21T11:01:07.335Z,53.22
2022-08-21T11:03:40.868Z,63.03
2022-08-21T11:06:29.210Z,47.83
2022-08-21T11:09:02.980Z,52.47
2022-08-21T11:11:50.142Z,53.28
2022-08-21T11:14:27.551Z,50.72
2022-08-21T11:17:13.174Z,50.75
2022-08-21T11:20:05.439Z,46.60
2022-08-21T11:22:55.032Z,38.67
2022-08-21T11:25:54.945Z,51.88
2022-08-21T11:28:53.601Z,52.05
2022-08-21T11:31:24.794Z,30.90
2022-08-21T11:34:21.002Z,48.38
2022-08-21T11:37:19.154Z,50.38
2022-08-21T11:40:00.292Z,28.73
2022-08-21T11:42:42.355Z,41.90
2022-08-21T11:45:50.236Z,48.95
2022-08-21T11:48:46.540Z,42.03
2022-08-21T11:51:20.254Z,40.80
2022-08-21T11:53:54.187Z,31.90
2022-08-21T11:56:26.443Z,36.42
2022-08-21T11:58:58.977Z,37.28
2022-08-21T12:01:29.785Z,42.17
2022-08-21T12:04:10.100Z,40.95
2022-08-21T12:06:55.739Z,40.55
2022-08-21T12:09:35.624Z,53.22
2022-08-21T12:12:24.116Z,32.30
2022-08-21T12:14:53.255Z,34.33
2022-08-21T12:17:24.038Z,29.23
2022-08-21T12:20:22.403Z,32.78
2022-08-21T12:23:34.686Z,33.47
2022-08-21T12:26:36.928Z,34.22
2022-08-21T12:29:34.788Z,30.67
2022-08-21T12:32:28.063Z,34.50
2022-08-21T12:35:07.136Z,31.02
2022-08-21T12:37:41.510Z,34.47
2022-08-21T12:43:05.605Z,27.52
2022-08-21T12:45:41.614Z,26.52
2022-08-21T12:48:24.236Z,33.88
2022-08-21T12:51:15.318Z,32.10
2022-08-21T12:53:54.538Z,48.67
2022-08-21T12:56:27.179Z,41.38
2022-08-21T12:58:57.527Z,38.58
2022-08-21T13:01:47.568Z,31.90
2022-08-21T13:04:22.616Z,42.28
2022-08-21T13:06:54.816Z,33.70
2022-08-21T13:09:59.216Z,40.45
2022-08-21T13:12:27.747Z,34.45
2022-08-21T13:15:03.559Z,26.70
2022-08-21T13:17:33.773Z,30.95
2022-08-21T13:20:11.315Z,35.30
2022-08-21T13:22:48.465Z,24.02
2022-08-21T13:25:30.699Z,31.02
2022-08-21T13:28:09.324Z,27.48
2022-08-21T13:30:44.637Z,30.40
2022-08-21T13:33:16.065Z,26.73
2022-08-21T13:36:04.768Z,24.40
2022-08-21T13:38:48.628Z,23.88
2022-08-21T13:41:17.375Z,26.65
2022-08-21T13:43:50.225Z,28.05
2022-08-21T13:46:41.026Z,30.08
2022-08-21T13:49:20.461Z,23.67
2022-08-21T13:51:49.970Z,33.50
2022-08-21T13:54:34.817Z,35.33
2022-08-21T13:57:03.157Z,29.48
2022-08-21T13:59:34.366Z,24.95
2022-08-21T14:02:16.940Z,23.27
2022-08-21T14:05:00.216Z,26.98
2022-08-21T14:07:37.482Z,26.75
2022-08-21T14:10:07.255Z,29.50
2022-08-21T14:13:02.476Z,21.05
2022-08-21T14:15:32.238Z,27.98
2022-08-21T14:18:14.638Z,43.88
2022-08-21T14:20:43.301Z,30.48
2022-08-21T14:23:12.097Z,32.08
2022-08-21T14:25:46.117Z,23.40
2022-08-21T14:28:21.360Z,28.52
2022-08-21T14:30:51.544Z,27.10
2022-08-21T14:33:33.201Z,23.25
2022-08-21T14:36:03.027Z,27.10
2022-08-21T14:38:31.689Z,24.90
2022-08-21T14:41:06.333Z,27.95
2022-08-21T14:43:34.541Z,20.08
2022-08-21T14:46:03.809Z,19.92
2022-08-21T14:48:38.686Z,18.85
2022-08-21T14:51:10.735Z,20.58
2022-08-21T14:53:41.685Z,29.05
2022-08-21T14:56:10.212Z,22.45
2022-08-21T14:58:39.835Z,26.33
2022-08-21T15:01:08.833Z,27.60
2022-08-21T15:03:37.263Z,21.73
2022-08-21T15:06:07.075Z,28.55
2022-08-21T15:08:35.256Z,30.60
2022-08-21T15:11:12.678Z,21.48
2022-08-21T15:13:44.777Z,25.98
2022-08-21T15:16:13.103Z,26.35
2022-08-21T15:18:41.472Z,29.25
2022-08-21T15:21:10.389Z,21.40
2022-08-21T15:23:43.705Z,32.67
2022-08-21T15:26:12.109Z,27.25
2022-08-21T15:28:43.015Z,21.50
2022-08-21T15:31:11.002Z,31.27
2022-08-21T15:33:40.189Z,23.10
2022-08-21T15:36:08.971Z,28.75
2022-08-21T15:38:38.008Z,26.23
2022-08-21T15:41:08.332Z,25.38
2022-08-21T15:43:43.958Z,29.65
2022-08-21T15:46:14.124Z,28.55
2022-08-21T15:48:43.669Z,27.65
2022-08-21T15:51:12.015Z,24.60
2022-08-21T15:53:41.220Z,20.50
2022-08-21T15:56:23.802Z,31.73
2022-08-21T15:58:52.992Z,26.55
2022-08-21T16:01:25.102Z,23.95
2022-08-21T16:03:56.391Z,23.17
2022-08-21T16:06:37.580Z,22.70
2022-08-21T16:09:13.967Z,19.13
2022-08-21T16:11:44.170Z,23.88
2022-08-21T16:14:14.072Z,15.50
2022-08-21T16:16:42.819Z,16.50
2022-08-21T16:19:13.805Z,21.88
2022-08-21T16:21:52.142Z,27.40
2022-08-21T16:24:23.037Z,21.20
2022-08-21T16:26:58.176Z,24.52
2022-08-21T16:29:29.851Z,23.98
2022-08-21T16:31:58.169Z,17.25
2022-08-21T16:34:26.387Z,33.70
2022-08-21T16:36:54.918Z,26.55
2022-08-21T16:39:22.974Z,21.90
2022-08-21T16:41:51.200Z,23.83
2022-08-21T16:44:22.287Z,26.90
2022-08-21T16:46:50.476Z,27.17
2022-08-21T16:49:18.360Z,31.90
2022-08-21T16:51:46.350Z,24.15
2022-08-21T16:54:14.193Z,24.75
2022-08-21T16:56:46.994Z,30.40
2022-08-21T16:59:17.568Z,27.92
2022-08-21T17:01:45.958Z,25.40
2022-08-21T17:04:13.942Z,26.13
2022-08-21T17:06:44.142Z,26.08
2022-08-21T17:09:12.912Z,24.00
2022-08-21T17:11:43.804Z,22.65
2022-08-21T17:14:20.446Z,26.17
2022-08-21T17:16:53.153Z,21.92
2022-08-21T17:19:22.507Z,21.20
2022-08-21T17:21:50.705Z,23.15
2022-08-21T17:24:18.731Z,15.00
2022-08-21T17:26:47.717Z,15.15
2022-08-21T17:29:16.148Z,19.95
2022-08-21T17:31:44.176Z,14.93
2022-08-21T17:34:12.565Z,22.90
2022-08-21T17:36:40.612Z,15.68
2022-08-21T17:39:10.036Z,24.40
2022-08-21T17:41:38.043Z,21.13
2022-08-21T17:44:07.396Z,16.50
2022-08-21T17:46:35.637Z,16.30
2022-08-21T17:49:04.353Z,20.20
2022-08-21T17:51:32.633Z,21.58
2022-08-21T17:54:03.638Z,18.60
2022-08-21T17:56:34.409Z,19.85
2022-08-21T17:59:04.727Z,13.15
2022-08-21T18:01:38.947Z,13.60
2022-08-21T18:04:10.283Z,12.25
2022-08-21T18:06:42.214Z,21.10
2022-08-21T18:09:10.399Z,22.55
2022-08-21T18:11:40.565Z,21.13
2022-08-21T18:14:08.667Z,19.00
2022-08-21T18:16:37.911Z,15.65
2022-08-21T18:19:11.979Z,12.75
2022-08-21T18:21:40.759Z,16.17
2022-08-21T18:24:08.891Z,13.68
2022-08-21T18:26:38.286Z,17.15
2022-08-21T18:29:11.399Z,19.52
2022-08-21T18:31:42.035Z,16.75
2022-08-21T18:34:30.560Z,20.70
2022-08-21T18:37:01.196Z,13.93
2022-08-21T18:39:37.731Z,15.68
2022-08-21T18:42:10.252Z,17.30
2022-08-21T18:44:39.127Z,15.13
2022-08-21T18:47:08.994Z,15.68
2022-08-21T18:49:38.592Z,15.10
2022-08-21T18:52:06.885Z,19.73
2022-08-21T18:54:37.343Z,16.33
2022-08-21T18:57:08.430Z,27.17
2022-08-21T18:59:38.292Z,21.92
2022-08-21T19:02:08.635Z,16.55
2022-08-21T19:04:44.338Z,21.90
2022-08-21T19:07:25.687Z,14.32
2022-08-21T19:10:24.565Z,17.05
2022-08-21T19:12:45.831Z,18.13
2022-08-21T19:15:20.237Z,23.33
2022-08-21T19:17:50.605Z,18.90
2022-08-21T19:20:25.487Z,15.10
2022-08-21T19:22:56.464Z,18.45
2022-08-21T19:25:33.345Z,20.98
2022-08-21T19:28:10.997Z,16.35
2022-08-21T19:30:46.002Z,16.38
2022-08-21T19:33:23.191Z,14.55
2022-08-21T19:35:52.611Z,20.35
2022-08-21T19:38:42.228Z,20.70
2022-08-21T19:41:27.122Z,21.45
2022-08-21T19:44:04.248Z,25.77
2022-08-21T19:46:35.154Z,16.75
2022-08-21T19:49:07.617Z,19.83
2022-08-21T19:51:35.752Z,19.48
2022-08-21T19:54:03.924Z,21.73
2022-08-21T19:56:34.231Z,18.17
2022-08-21T19:59:07.182Z,12.98
2022-08-21T20:01:40.065Z,21.57
2022-08-21T20:04:18.267Z,14.50
2022-08-21T20:06:47.807Z,15.30
2022-08-21T20:09:17.523Z,15.55
2022-08-21T20:11:50.815Z,18.55
2022-08-21T20:14:21.841Z,16.17
2022-08-21T20:16:52.632Z,17.75
2022-08-21T20:19:21.952Z,21.48
2022-08-21T20:21:49.856Z,22.95
2022-08-21T20:24:18.108Z,21.00
2022-08-21T20:26:48.722Z,21.90
2022-08-21T20:29:24.550Z,17.08
2022-08-21T20:31:54.209Z,19.70
2022-08-21T20:34:24.268Z,27.10
2022-08-21T20:36:53.531Z,17.35
2022-08-21T20:39:23.872Z,30.45
2022-08-21T20:41:53.370Z,29.75
2022-08-21T20:44:21.250Z,25.17
2022-08-21T20:46:49.233Z,26.00
2022-08-21T20:49:21.267Z,22.30
2022-08-21T20:52:21.164Z,18.17
2022-08-21T20:55:15.879Z,17.48
2022-08-21T20:57:46.980Z,21.60
2022-08-21T21:00:26.220Z,33.67
2022-08-21T21:03:30.250Z,29.13
2022-08-21T21:06:01.838Z,25.70
2022-08-21T21:08:46.700Z,22.05
2022-08-21T21:11:19.253Z,28.63
2022-08-21T21:13:51.756Z,33.50
2022-08-21T21:16:24.933Z,25.30
2022-08-21T21:19:00.240Z,21.92
2022-08-21T21:21:51.655Z,32.95
2022-08-21T21:24:30.496Z,27.42
2022-08-21T21:27:02.745Z,33.72
2022-08-21T21:29:47.273Z,23.42
2022-08-21T21:32:17.909Z,33.13
2022-08-21T21:34:46.761Z,22.65
2022-08-21T21:37:25.543Z,26.00
2022-08-21T21:40:31.936Z,20.40
2022-08-21T21:43:09.902Z,33.38
2022-08-21T21:46:18.874Z,30.42
2022-08-21T21:48:55.730Z,29.60
2022-08-21T21:51:46.422Z,26.90
2022-08-21T21:54:26.413Z,40.58
2022-08-21T21:57:03.519Z,31.10
2022-08-21T21:59:39.716Z,21.83
2022-08-21T22:02:20.126Z,29.67
2022-08-21T22:05:08.319Z,28.77
2022-08-21T22:07:58.303Z,34.00
2022-08-21T22:11:00.896Z,20.80
2022-08-21T22:13:52.049Z,22.70
2022-08-21T22:16:20.482Z,27.13
2022-08-21T22:19:00.224Z,28.80
2022-08-21T22:21:32.969Z,34.05
2022-08-21T22:24:15.805Z,28.55
2022-08-21T22:26:47.766Z,31.73
2022-08-21T22:29:19.446Z,28.48
2022-08-21T22:32:05.878Z,26.40
2022-08-21T22:34:35.014Z,30.77
2022-08-21T22:37:06.060Z,35.95
2022-08-21T22:39:44.621Z,29.85
2022-08-21T22:42:21.436Z,33.00
2022-08-21T22:44:56.404Z,39.00
2022-08-21T22:47:47.356Z,49.50
2022-08-21T22:50:25.284Z,50.50
2022-08-21T22:53:02.889Z,43.05
2022-08-21T22:55:40.047Z,34.30
2022-08-21T22:58:20.448Z,33.67
2022-08-21T23:01:05.613Z,52.95
2022-08-21T23:03:44.762Z,34.97
2022-08-21T23:06:29.679Z,38.25
2022-08-21T23:08:58.372Z,52.47
2022-08-21T23:11:50.948Z,43.72
2022-08-21T23:14:22.782Z,37.67
2022-08-21T23:17:08.342Z,44.20
2022-08-21T23:20:05.501Z,41.05
2022-08-21T23:22:40.233Z,44.45
2022-08-21T23:25:12.941Z,39.05
2022-08-21T23:27:48.500Z,37.30
2022-08-21T23:30:22.318Z,32.83
2022-08-21T23:33:25.037Z,51.67
2022-08-21T23:36:20.809Z,36.97
2022-08-21T23:39:14.584Z,42.63
2022-08-21T23:42:18.972Z,47.05
2022-08-21T23:44:49.488Z,44.50
2022-08-21T23:47:29.104Z,38.03
2022-08-21T23:50:14.452Z,47.40
2022-08-21T23:53:12.875Z,46.25
2022-08-21T23:56:08.326Z,47.25
2022-08-21T23:58:42.509Z,55.97
